Time;durP1;ratioP1;P1;durP2;ratioP2;P2;SDS_P1;SDS_P2;PMS_P1;PMS_P2;Temp;Humidity;BMP_temperature;BMP_pressure;BME280_temperature;BME280_humidity;BME280_pressure;Samples;Min_cycle;Max_cycle;Signal;HPM_P1;HPM_P2
2023/10/30 00:00:15;;;;;;;6.10;4.50;;;13.30;99.90;;;;;;2060519;28;20173;-81
2023/10/30 00:01:16;;;;;;;7.38;4.60;;;13.30;99.90;;;;;;2052016;28;20457;-82
2023/10/30 00:02:16;;;;;;;5.43;4.20;;;13.30;99.90;;;;;;2048770;28;20067;-82
2023/10/30 00:03:17;;;;;;;5.88;4.00;;;13.40;99.90;;;;;;2060615;28;20038;-82
2023/10/30 00:04:18;;;;;;;6.65;3.95;;;13.40;99.90;;;;;;2051536;28;20047;-83
2023/10/30 00:05:18;;;;;;;4.85;3.95;;;13.40;99.90;;;;;;2047615;28;20026;-81
2023/10/30 00:06:19;;;;;;;5.22;4.05;;;13.30;99.90;;;;;;2053553;28;20041;-82
2023/10/30 00:07:19;;;;;;;5.20;3.65;;;13.40;99.90;;;;;;2050651;28;20031;-82
2023/10/30 00:08:21;;;;;;;4.43;3.60;;;13.40;99.90;;;;;;2062810;28;20033;-81
2023/10/30 00:09:23;;;;;;;5.13;3.72;;;13.40;99.90;;;;;;2062308;28;20038;-82
2023/10/30 00:10:23;;;;;;;4.90;3.70;;;13.30;99.90;;;;;;2060039;28;20122;-81
2023/10/30 00:11:24;;;;;;;4.40;3.50;;;13.40;99.90;;;;;;2062743;28;20037;-81
2023/10/30 00:12:25;;;;;;;5.95;3.63;;;13.40;99.90;;;;;;2067337;28;20022;-82
2023/10/30 00:13:25;;;;;;;6.38;3.78;;;13.40;99.90;;;;;;2061134;28;20470;-80
2023/10/30 00:14:26;;;;;;;5.55;3.53;;;13.40;99.90;;;;;;2065082;28;20054;-80
2023/10/30 00:15:26;;;;;;;5.40;3.80;;;13.40;99.90;;;;;;2068294;28;20045;-82
2023/10/30 00:16:27;;;;;;;4.65;3.28;;;13.30;99.90;;;;;;2053966;28;20040;-81
2023/10/30 00:17:28;;;;;;;5.63;3.50;;;13.40;99.90;;;;;;2055476;28;20049;-81
2023/10/30 00:18:28;;;;;;;5.97;3.60;;;13.40;99.90;;;;;;2067445;28;20064;-82
2023/10/30 00:19:29;;;;;;;3.88;3.33;;;13.40;99.90;;;;;;2052425;28;20027;-82
2023/10/30 00:20:29;;;;;;;6.07;4.07;;;13.40;99.90;;;;;;2053864;28;20031;-82
2023/10/30 00:21:30;;;;;;;5.15;3.90;;;13.40;99.90;;;;;;2051618;28;20072;-82
2023/10/30 00:22:31;;;;;;;7.80;4.13;;;13.40;99.90;;;;;;2054705;28;20030;-82
2023/10/30 00:23:31;;;;;;;5.32;4.20;;;13.40;99.90;;;;;;2053516;28;20034;-82
2023/10/30 00:24:32;;;;;;;5.68;4.20;;;13.40;99.90;;;;;;2063019;28;20057;-81
2023/10/30 00:25:33;;;;;;;6.57;4.30;;;13.40;99.90;;;;;;2058650;28;20019;-82
2023/10/30 00:26:35;;;;;;;5.55;4.40;;;13.50;99.90;;;;;;2063631;28;20511;-82
2023/10/30 00:27:36;;;;;;;6.25;3.80;;;13.50;99.90;;;;;;2060347;28;20049;-81
2023/10/30 00:28:36;;;;;;;5.97;3.78;;;13.50;99.90;;;;;;2049494;28;20034;-81
2023/10/30 00:29:40;;;;;;;4.95;3.78;;;13.40;99.90;;;;;;2054832;28;20508;-81
2023/10/30 00:30:41;;;;;;;5.95;4.20;;;13.40;99.90;;;;;;2061701;28;20072;-82
2023/10/30 00:31:41;;;;;;;6.68;4.15;;;13.40;99.90;;;;;;2053903;28;20031;-81
2023/10/30 00:32:43;;;;;;;4.90;3.75;;;13.40;99.90;;;;;;2051689;28;20073;-81
2023/10/30 00:33:43;;;;;;;5.32;4.07;;;13.40;99.90;;;;;;2055329;28;20402;-81
2023/10/30 00:34:44;;;;;;;7.35;4.50;;;13.40;99.90;;;;;;2053518;28;20066;-81
2023/10/30 00:35:44;;;;;;;7.45;4.40;;;13.40;99.90;;;;;;2047848;28;20020;-81
2023/10/30 00:36:45;;;;;;;5.90;4.32;;;13.40;99.90;;;;;;2047452;28;20495;-82
2023/10/30 00:37:46;;;;;;;6.93;4.32;;;13.30;99.90;;;;;;2045748;28;20127;-82
2023/10/30 00:38:46;;;;;;;6.78;4.43;;;13.40;99.90;;;;;;2045438;28;20122;-82
2023/10/30 00:39:48;;;;;;;5.95;4.45;;;13.30;99.90;;;;;;2051579;28;20094;-81
2023/10/30 00:40:48;;;;;;;6.50;4.47;;;13.30;99.90;;;;;;2061771;28;20030;-81
2023/10/30 00:41:50;;;;;;;8.27;4.50;;;13.30;99.90;;;;;;2063219;28;20853;-82
2023/10/30 00:42:50;;;;;;;5.78;4.30;;;13.30;99.90;;;;;;2052687;28;20182;-80
2023/10/30 00:43:51;;;;;;;7.22;4.20;;;13.30;99.90;;;;;;2043445;28;20474;-80
2023/10/30 00:44:51;;;;;;;6.03;4.40;;;13.30;99.90;;;;;;2051235;28;20023;-81
2023/10/30 00:45:53;;;;;;;5.35;3.97;;;13.40;99.90;;;;;;2059541;28;20034;-80
2023/10/30 00:46:53;;;;;;;5.38;4.32;;;13.40;99.90;;;;;;2059942;28;20035;-81
2023/10/30 00:47:54;;;;;;;6.30;4.43;;;13.40;99.90;;;;;;2057591;28;20026;-80
2023/10/30 00:48:55;;;;;;;7.28;4.13;;;13.40;99.90;;;;;;2060097;28;20026;-81
2023/10/30 00:49:55;;;;;;;7.15;4.03;;;13.40;99.90;;;;;;2062994;28;20061;-82
2023/10/30 00:50:56;;;;;;;6.63;4.18;;;13.40;99.90;;;;;;2055718;28;20031;-82
2023/10/30 00:51:57;;;;;;;7.32;4.20;;;13.40;99.90;;;;;;2055406;28;20026;-82
2023/10/30 00:52:57;;;;;;;6.75;4.00;;;13.40;99.90;;;;;;2065983;28;20034;-82
2023/10/30 00:53:58;;;;;;;5.22;3.53;;;13.30;99.90;;;;;;2055072;28;20065;-81
2023/10/30 00:54:58;;;;;;;4.75;3.33;;;13.30;99.90;;;;;;2059736;28;20073;-81
2023/10/30 00:55:59;;;;;;;4.15;3.13;;;13.30;99.90;;;;;;2051112;28;20042;-82
2023/10/30 00:57:00;;;;;;;6.25;3.30;;;13.30;99.90;;;;;;2049879;28;20027;-82
2023/10/30 00:58:00;;;;;;;3.95;3.10;;;13.30;99.90;;;;;;2059282;28;20042;-81
2023/10/30 00:59:01;;;;;;;4.28;2.80;;;13.40;99.90;;;;;;2054133;28;20106;-81
2023/10/30 01:00:04;;;;;;;5.07;2.97;;;13.40;99.90;;;;;;2054873;28;20129;-81
2023/10/30 01:01:04;;;;;;;4.65;3.17;;;13.40;99.90;;;;;;2055602;28;20041;-80
2023/10/30 01:02:05;;;;;;;3.65;2.97;;;13.40;99.90;;;;;;2055429;28;20061;-80
2023/10/30 01:03:06;;;;;;;4.18;2.60;;;13.40;99.90;;;;;;2051198;28;20043;-79
2023/10/30 01:04:07;;;;;;;4.60;2.80;;;13.40;99.90;;;;;;2042911;28;20035;-81
2023/10/30 01:05:11;;;;;;;3.20;2.22;;;13.40;99.90;;;;;;2037469;28;20110;-78
2023/10/30 01:06:11;;;;;;;4.38;2.40;;;13.50;99.90;;;;;;2054221;28;20049;-81
2023/10/30 01:07:12;;;;;;;3.60;2.85;;;13.50;99.90;;;;;;2063590;28;20662;-80
2023/10/30 01:08:12;;;;;;;2.95;2.50;;;13.50;99.90;;;;;;2052618;28;20034;-81
2023/10/30 01:09:13;;;;;;;3.10;2.47;;;13.60;99.90;;;;;;2047950;28;20054;-81
2023/10/30 01:10:14;;;;;;;3.17;2.50;;;13.50;99.90;;;;;;2060996;28;20104;-81
2023/10/30 01:11:15;;;;;;;3.05;2.33;;;13.50;99.90;;;;;;2061045;28;20552;-80
2023/10/30 01:12:16;;;;;;;4.53;2.63;;;13.50;99.90;;;;;;2057003;28;20026;-81
2023/10/30 01:13:17;;;;;;;4.15;2.88;;;13.50;99.90;;;;;;2041399;28;20031;-81
2023/10/30 01:14:18;;;;;;;5.03;2.70;;;13.50;99.90;;;;;;2045063;28;20053;-81
2023/10/30 01:15:19;;;;;;;3.22;2.65;;;13.40;99.90;;;;;;2057514;28;20121;-80
2023/10/30 01:16:19;;;;;;;2.88;2.50;;;13.50;99.90;;;;;;2058827;28;20077;-82
2023/10/30 01:17:20;;;;;;;4.50;2.80;;;13.40;99.90;;;;;;2061694;28;20025;-81
2023/10/30 01:18:21;;;;;;;3.22;2.70;;;13.50;99.90;;;;;;2058608;28;20267;-81
2023/10/30 01:19:21;;;;;;;3.47;2.58;;;13.50;99.90;;;;;;2055932;28;20464;-81
2023/10/30 01:20:22;;;;;;;5.65;2.65;;;13.40;99.90;;;;;;2051566;28;20114;-80
2023/10/30 01:21:22;;;;;;;2.50;2.22;;;13.40;99.90;;;;;;2051085;28;20050;-80
2023/10/30 01:22:23;;;;;;;2.60;2.38;;;13.30;99.90;;;;;;2059679;28;20030;-80
2023/10/30 01:23:23;;;;;;;3.28;2.20;;;13.30;99.90;;;;;;2056128;28;20027;-82
2023/10/30 01:24:24;;;;;;;2.40;2.20;;;13.40;99.90;;;;;;2062838;28;20089;-81
2023/10/30 01:25:25;;;;;;;3.47;2.20;;;13.30;99.90;;;;;;2060525;28;20048;-82
2023/10/30 01:26:27;;;;;;;3.53;2.08;;;13.30;99.90;;;;;;2058933;28;20026;-81
2023/10/30 01:27:27;;;;;;;2.20;2.00;;;13.40;99.90;;;;;;2063114;28;20375;-81
2023/10/30 01:28:29;;;;;;;3.63;2.38;;;13.40;99.90;;;;;;2055806;28;20041;-80
2023/10/30 01:29:29;;;;;;;3.22;2.38;;;13.40;99.90;;;;;;2055158;28;20022;-83
2023/10/30 01:30:30;;;;;;;2.92;2.33;;;13.40;99.90;;;;;;2063063;28;20579;-83
2023/10/30 01:31:30;;;;;;;4.05;2.13;;;13.40;99.90;;;;;;2058846;28;20045;-83
2023/10/30 01:32:31;;;;;;;4.05;2.20;;;13.50;99.90;;;;;;2056057;28;20030;-83
2023/10/30 01:33:32;;;;;;;3.85;2.28;;;13.40;99.90;;;;;;2067680;28;20100;-84
2023/10/30 01:34:32;;;;;;;4.13;2.08;;;13.40;99.90;;;;;;2055887;28;20515;-84
2023/10/30 01:35:33;;;;;;;4.75;2.17;;;13.40;99.90;;;;;;2058462;28;20034;-84
2023/10/30 01:36:34;;;;;;;3.03;1.90;;;13.40;99.90;;;;;;2051205;28;20463;-83
2023/10/30 01:37:34;;;;;;;2.63;2.20;;;13.40;99.90;;;;;;2054278;28;20535;-84
2023/10/30 01:38:35;;;;;;;2.95;2.10;;;13.40;99.90;;;;;;2051703;28;20038;-83
2023/10/30 01:39:39;;;;;;;2.75;2.15;;;13.40;99.90;;;;;;2062669;28;20042;-83
2023/10/30 01:40:51;;;;;;;2.40;2.20;;;13.40;99.90;;;;;;2060154;28;20105;-82
2023/10/30 01:41:51;;;;;;;4.50;2.30;;;13.40;99.90;;;;;;2058764;28;20416;-83
2023/10/30 01:42:55;;;;;;;4.13;2.72;;;13.40;99.90;;;;;;2052020;28;20053;-83
2023/10/30 01:43:55;;;;;;;2.80;2.53;;;13.40;99.90;;;;;;2051505;28;20052;-83
2023/10/30 01:44:58;;;;;;;4.68;2.55;;;13.40;99.90;;;;;;2055938;28;20049;-85
2023/10/30 01:45:59;;;;;;;2.10;1.90;;;13.40;99.90;;;;;;2059529;28;20030;-82
2023/10/30 01:47:00;;;;;;;3.10;2.00;;;13.40;99.90;;;;;;2052237;28;20045;-82
2023/10/30 01:48:01;;;;;;;5.50;2.50;;;13.50;99.90;;;;;;2050829;28;20023;-75
2023/10/30 01:49:02;;;;;;;3.92;2.20;;;13.40;99.90;;;;;;2054787;28;20414;-76
2023/10/30 01:50:09;;;;;;;4.53;2.25;;;13.40;99.90;;;;;;2047305;28;20042;-82
2023/10/30 01:51:11;;;;;;;3.30;2.22;;;13.40;99.90;;;;;;2049947;28;20495;-74
2023/10/30 01:52:13;;;;;;;3.28;2.13;;;13.30;99.90;;;;;;2058606;28;20021;-73
2023/10/30 01:53:16;;;;;;;3.72;2.10;;;13.30;99.90;;;;;;2045768;28;20070;-74
2023/10/30 01:54:16;;;;;;;3.55;2.17;;;13.30;99.90;;;;;;2037182;28;20059;-73
2023/10/30 01:55:17;;;;;;;3.80;2.20;;;13.40;99.90;;;;;;2043194;28;20035;-73
2023/10/30 01:56:18;;;;;;;2.75;2.08;;;13.40;99.90;;;;;;2060736;28;20188;-73
2023/10/30 01:57:22;;;;;;;2.92;2.20;;;13.30;99.90;;;;;;2052465;28;20153;-73
2023/10/30 01:58:23;;;;;;;3.88;2.28;;;13.30;99.90;;;;;;2046965;28;20532;-73
2023/10/30 01:59:24;;;;;;;3.65;2.15;;;13.40;99.90;;;;;;2043627;28;20517;-73
2023/10/30 02:00:25;;;;;;;4.53;2.28;;;13.30;99.90;;;;;;2048071;28;20038;-72
2023/10/30 02:01:26;;;;;;;4.65;2.20;;;13.30;99.90;;;;;;2051703;28;20027;-73
2023/10/30 02:02:29;;;;;;;2.80;2.20;;;13.20;99.90;;;;;;2050441;28;20441;-73
2023/10/30 02:03:30;;;;;;;4.13;2.20;;;13.20;99.90;;;;;;2050948;28;20093;-73
2023/10/30 02:04:31;;;;;;;4.50;2.20;;;13.20;99.90;;;;;;2058513;28;20080;-73
2023/10/30 02:05:32;;;;;;;2.22;2.00;;;13.20;99.90;;;;;;2054927;28;20022;-73
2023/10/30 02:06:33;;;;;;;3.13;2.20;;;13.10;99.90;;;;;;2058469;28;20570;-74
2023/10/30 02:07:35;;;;;;;4.75;2.20;;;13.10;99.90;;;;;;2058522;28;20490;-73
2023/10/30 02:08:35;;;;;;;6.15;2.42;;;13.10;99.90;;;;;;2058926;28;20041;-73
2023/10/30 02:09:36;;;;;;;2.30;2.10;;;13.20;99.90;;;;;;2059232;28;20513;-73
2023/10/30 02:10:37;;;;;;;3.85;2.20;;;13.10;99.90;;;;;;2049486;28;20543;-74
2023/10/30 02:11:37;;;;;;;2.40;2.10;;;13.10;99.90;;;;;;2041068;28;20486;-75
2023/10/30 02:12:41;;;;;;;3.67;2.30;;;13.10;99.90;;;;;;2051094;28;20113;-73
2023/10/30 02:13:42;;;;;;;3.80;2.17;;;13.10;99.90;;;;;;2054294;28;20037;-74
2023/10/30 02:14:44;;;;;;;2.40;1.92;;;13.10;99.90;;;;;;2050492;28;20030;-72
2023/10/30 02:15:45;;;;;;;2.58;2.20;;;13.10;99.90;;;;;;2046904;28;20042;-73
2023/10/30 02:16:45;;;;;;;2.72;2.25;;;13.10;99.90;;;;;;2058621;28;20104;-74
2023/10/30 02:17:46;;;;;;;3.80;2.33;;;13.10;99.90;;;;;;2054470;28;20023;-72
2023/10/30 02:18:47;;;;;;;2.55;2.30;;;13.10;99.90;;;;;;2054749;28;20023;-73
2023/10/30 02:19:47;;;;;;;2.85;2.15;;;13.10;99.90;;;;;;2052581;28;20493;-72
2023/10/30 02:20:48;;;;;;;4.55;2.20;;;13.10;99.90;;;;;;2050269;28;20332;-73
2023/10/30 02:21:53;;;;;;;3.42;2.17;;;13.10;99.90;;;;;;2047089;28;20080;-73
2023/10/30 02:22:54;;;;;;;3.55;2.20;;;13.10;99.90;;;;;;2057166;28;20486;-73
2023/10/30 02:24:01;;;;;;;4.57;2.67;;;13.10;99.90;;;;;;2061598;28;20581;-72
2023/10/30 02:25:01;;;;;;;8.70;4.93;;;13.10;99.90;;;;;;2058558;28;20111;-72
2023/10/30 02:26:02;;;;;;;13.57;6.30;;;13.10;99.90;;;;;;2059489;28;20034;-74
2023/10/30 02:27:03;;;;;;;17.10;8.10;;;13.10;99.90;;;;;;2059762;28;20033;-73
2023/10/30 02:28:04;;;;;;;16.52;7.68;;;13.10;99.90;;;;;;2054099;28;20744;-73
2023/10/30 02:29:05;;;;;;;11.90;6.60;;;13.10;99.90;;;;;;2049982;28;20030;-73
2023/10/30 02:30:11;;;;;;;11.55;6.97;;;13.00;99.90;;;;;;2059302;28;20026;-74
2023/10/30 02:31:12;;;;;;;12.18;7.00;;;13.00;99.90;;;;;;2050443;28;20058;-72
2023/10/30 02:32:12;;;;;;;13.55;7.75;;;13.00;99.90;;;;;;2049305;28;20027;-73
2023/10/30 02:33:13;;;;;;;14.55;7.75;;;13.00;99.90;;;;;;2056981;28;20050;-74
2023/10/30 02:34:14;;;;;;;15.48;7.53;;;13.00;99.90;;;;;;2061387;28;20027;-72
2023/10/30 02:35:16;;;;;;;11.45;6.68;;;13.00;99.90;;;;;;2058309;28;20117;-73
2023/10/30 02:36:17;;;;;;;10.45;5.95;;;13.00;99.90;;;;;;2050202;28;20045;-72
2023/10/30 02:37:17;;;;;;;10.27;6.57;;;12.90;99.90;;;;;;2052650;28;20102;-72
2023/10/30 02:38:18;;;;;;;11.77;6.20;;;13.00;99.90;;;;;;2056610;28;20134;-74
2023/10/30 02:39:18;;;;;;;8.57;5.88;;;13.00;99.90;;;;;;2049493;28;20038;-72
2023/10/30 02:40:20;;;;;;;8.77;5.80;;;13.00;99.90;;;;;;2048661;28;20031;-72
2023/10/30 02:41:21;;;;;;;7.97;5.63;;;12.90;99.90;;;;;;2054157;28;20397;-73
2023/10/30 02:42:22;;;;;;;8.48;5.72;;;12.90;99.90;;;;;;2051036;28;20113;-73
2023/10/30 02:43:23;;;;;;;7.95;5.72;;;12.90;99.90;;;;;;2054998;28;20035;-73
2023/10/30 02:44:24;;;;;;;12.50;6.50;;;12.90;99.90;;;;;;2053342;28;20790;-73
2023/10/30 02:45:25;;;;;;;8.38;6.50;;;12.90;99.90;;;;;;2057693;28;20017;-72
2023/10/30 02:46:26;;;;;;;8.10;6.75;;;12.90;99.90;;;;;;2054445;28;20042;-73
2023/10/30 02:47:28;;;;;;;10.70;6.78;;;12.90;99.90;;;;;;2050343;28;20056;-73
2023/10/30 02:48:29;;;;;;;9.45;7.00;;;12.90;99.90;;;;;;2048395;28;20035;-73
2023/10/30 02:49:29;;;;;;;9.73;7.72;;;12.90;99.90;;;;;;2059106;28;20058;-72
2023/10/30 02:50:30;;;;;;;11.82;7.47;;;12.90;99.90;;;;;;2061520;28;20061;-72
2023/10/30 02:51:31;;;;;;;9.98;7.65;;;12.90;99.90;;;;;;2059193;28;20018;-72
2023/10/30 02:52:32;;;;;;;10.70;8.40;;;12.90;99.90;;;;;;2051412;28;20506;-73
2023/10/30 02:53:32;;;;;;;11.10;8.68;;;12.90;99.90;;;;;;2045681;28;20038;-72
2023/10/30 02:54:33;;;;;;;11.18;8.32;;;12.90;99.90;;;;;;2053369;28;20106;-73
2023/10/30 02:55:35;;;;;;;12.32;9.18;;;12.90;99.90;;;;;;2062519;28;20441;-74
2023/10/30 02:56:37;;;;;;;13.00;9.00;;;12.90;99.90;;;;;;2054537;28;20057;-73
2023/10/30 02:57:38;;;;;;;12.13;9.20;;;12.90;99.90;;;;;;2054231;28;20102;-73
2023/10/30 02:58:39;;;;;;;11.13;9.38;;;12.90;99.90;;;;;;2049719;28;20110;-72
2023/10/30 02:59:40;;;;;;;11.63;9.82;;;12.80;99.90;;;;;;2057852;28;20025;-73
2023/10/30 03:00:41;;;;;;;13.65;9.68;;;12.80;99.90;;;;;;2054443;28;20599;-72
2023/10/30 03:01:41;;;;;;;12.48;9.57;;;12.90;99.90;;;;;;2058364;28;20032;-73
2023/10/30 03:02:42;;;;;;;12.50;10.05;;;12.90;99.90;;;;;;2053500;28;20019;-72
2023/10/30 03:03:43;;;;;;;13.23;9.32;;;12.90;99.90;;;;;;2052419;28;20029;-73
2023/10/30 03:04:44;;;;;;;14.48;10.15;;;12.90;99.90;;;;;;2061289;28;20104;-72
2023/10/30 03:05:45;;;;;;;13.50;10.07;;;12.90;99.90;;;;;;2048365;28;20035;-73
2023/10/30 03:06:46;;;;;;;14.75;10.23;;;12.90;99.90;;;;;;2043468;28;20039;-72
2023/10/30 03:07:46;;;;;;;13.45;10.15;;;12.90;99.90;;;;;;2058162;28;20736;-72
2023/10/30 03:08:47;;;;;;;12.23;9.73;;;12.80;99.90;;;;;;2061895;28;20444;-72
2023/10/30 03:09:47;;;;;;;14.13;10.48;;;12.80;99.90;;;;;;2051451;28;20035;-72
2023/10/30 03:10:48;;;;;;;12.13;9.95;;;12.80;99.90;;;;;;2060104;28;20106;-73
2023/10/30 03:11:49;;;;;;;13.68;10.15;;;12.80;99.90;;;;;;2062343;28;20030;-73
2023/10/30 03:12:49;;;;;;;16.63;10.82;;;12.80;99.90;;;;;;2062106;28;20108;-71
2023/10/30 03:13:50;;;;;;;13.93;10.18;;;12.80;99.90;;;;;;2058987;28;20113;-73
2023/10/30 03:14:50;;;;;;;12.60;9.98;;;12.80;99.90;;;;;;2061031;28;20027;-72
2023/10/30 03:15:51;;;;;;;12.43;10.13;;;12.80;99.90;;;;;;2046199;28;20139;-73
2023/10/30 03:16:54;;;;;;;14.27;10.63;;;12.80;99.90;;;;;;2042299;28;20035;-73
2023/10/30 03:17:54;;;;;;;13.15;10.73;;;12.70;99.90;;;;;;2051550;28;20035;-72
2023/10/30 03:18:55;;;;;;;14.75;11.00;;;12.70;99.90;;;;;;2056949;28;20019;-73
2023/10/30 03:19:56;;;;;;;13.48;10.95;;;12.70;99.90;;;;;;2062002;28;20881;-73
2023/10/30 03:20:56;;;;;;;14.30;10.98;;;12.70;99.90;;;;;;2059915;28;20581;-73
2023/10/30 03:21:57;;;;;;;17.00;12.25;;;12.80;99.90;;;;;;2058014;28;20055;-72
2023/10/30 03:22:58;;;;;;;14.25;11.95;;;12.80;99.90;;;;;;2060549;28;20042;-72
2023/10/30 03:23:58;;;;;;;14.75;12.48;;;12.80;99.90;;;;;;2060072;28;20050;-73
2023/10/30 03:24:59;;;;;;;16.15;12.25;;;12.80;99.90;;;;;;2058207;28;20019;-73
2023/10/30 03:26:00;;;;;;;16.45;12.85;;;12.80;99.90;;;;;;2051444;28;20030;-74
2023/10/30 03:27:01;;;;;;;16.63;12.48;;;12.80;99.90;;;;;;2060668;28;20561;-74
2023/10/30 03:28:02;;;;;;;18.38;12.43;;;12.80;99.90;;;;;;2059387;28;20157;-73
2023/10/30 03:29:03;;;;;;;17.33;12.60;;;12.80;99.90;;;;;;2058244;28;20529;-72
2023/10/30 03:30:04;;;;;;;17.02;13.02;;;12.70;99.90;;;;;;2051746;28;20027;-73
2023/10/30 03:31:07;;;;;;;18.60;13.40;;;12.70;99.90;;;;;;2051270;28;20033;-72
2023/10/30 03:32:08;;;;;;;16.27;12.55;;;12.70;99.90;;;;;;2062561;28;20027;-73
2023/10/30 03:33:08;;;;;;;18.08;13.35;;;12.70;99.90;;;;;;2046185;28;20024;-73
2023/10/30 03:34:09;;;;;;;16.00;12.52;;;12.60;99.90;;;;;;2047495;28;20427;-73
2023/10/30 03:35:09;;;;;;;17.35;13.13;;;12.60;99.90;;;;;;2059558;28;20058;-72
2023/10/30 03:36:10;;;;;;;17.15;13.93;;;12.60;99.90;;;;;;2059630;28;20061;-72
2023/10/30 03:37:12;;;;;;;18.30;13.48;;;12.60;99.90;;;;;;2051244;28;20063;-73
2023/10/30 03:38:16;;;;;;;16.33;13.45;;;12.60;99.90;;;;;;2050943;28;20032;-73
2023/10/30 03:39:18;;;;;;;19.15;13.40;;;12.60;99.90;;;;;;2046192;28;20122;-73
2023/10/30 03:40:19;;;;;;;15.27;12.77;;;12.50;99.90;;;;;;2048864;28;20035;-74
2023/10/30 03:41:19;;;;;;;17.05;13.18;;;12.50;99.90;;;;;;2054217;28;20813;-74
2023/10/30 03:42:21;;;;;;;18.83;13.38;;;12.50;99.90;;;;;;2053346;28;20121;-73
2023/10/30 03:43:22;;;;;;;17.58;13.80;;;12.50;99.90;;;;;;2060275;28;20030;-73
2023/10/30 03:44:26;;;;;;;22.33;15.07;;;12.50;99.90;;;;;;2061801;28;20498;-73
2023/10/30 03:45:26;;;;;;;22.30;14.65;;;12.50;99.90;;;;;;2060138;28;20038;-73
2023/10/30 03:46:28;;;;;;;22.10;15.45;;;12.50;99.90;;;;;;2051689;28;20072;-72
2023/10/30 03:47:28;;;;;;;21.92;14.77;;;12.50;99.90;;;;;;2047854;28;20031;-73
2023/10/30 03:48:29;;;;;;;22.67;15.57;;;12.50;99.90;;;;;;2053084;28;20608;-73
2023/10/30 03:49:30;;;;;;;18.70;14.18;;;12.40;99.90;;;;;;2054750;28;20038;-74
2023/10/30 03:50:31;;;;;;;18.77;13.40;;;12.40;99.90;;;;;;2053301;28;20095;-73
2023/10/30 03:51:32;;;;;;;20.27;14.77;;;12.40;99.90;;;;;;2058632;28;20026;-73
2023/10/30 03:52:32;;;;;;;20.75;14.70;;;12.40;99.90;;;;;;2059016;28;20294;-72
2023/10/30 03:53:33;;;;;;;19.23;14.75;;;12.40;99.90;;;;;;2051078;28;20064;-72
2023/10/30 03:54:33;;;;;;;22.52;15.35;;;12.40;99.90;;;;;;2055099;28;20038;-72
2023/10/30 03:55:34;;;;;;;19.10;13.95;;;12.40;99.90;;;;;;2054300;28;20022;-73
2023/10/30 03:56:35;;;;;;;20.15;14.60;;;12.40;99.90;;;;;;2049791;28;20035;-73
2023/10/30 03:57:36;;;;;;;17.65;13.63;;;12.40;99.90;;;;;;2050194;28;20035;-72
2023/10/30 03:58:36;;;;;;;19.02;13.77;;;12.40;99.90;;;;;;2050852;28;20050;-72
2023/10/30 03:59:37;;;;;;;17.83;13.32;;;12.40;99.90;;;;;;2049830;28;20031;-72
2023/10/30 04:00:38;;;;;;;18.52;13.13;;;12.40;99.90;;;;;;2053925;28;20030;-73
2023/10/30 04:01:38;;;;;;;18.17;13.90;;;12.40;99.90;;;;;;2047907;28;20105;-72
2023/10/30 04:02:39;;;;;;;17.10;13.55;;;12.40;99.90;;;;;;2054659;28;20026;-72
2023/10/30 04:03:40;;;;;;;17.30;13.25;;;12.40;99.90;;;;;;2062250;28;20026;-72
2023/10/30 04:04:40;;;;;;;20.05;13.57;;;12.40;99.90;;;;;;2059340;28;20027;-72
2023/10/30 04:05:42;;;;;;;21.42;14.77;;;12.40;99.90;;;;;;2056768;28;20026;-72
2023/10/30 04:06:43;;;;;;;17.65;13.77;;;12.40;99.90;;;;;;2059121;28;20489;-73
2023/10/30 04:07:44;;;;;;;17.30;13.02;;;12.30;99.90;;;;;;2046875;28;20065;-72
2023/10/30 04:08:45;;;;;;;19.88;14.07;;;12.40;99.90;;;;;;2051127;28;20047;-72
2023/10/30 04:09:45;;;;;;;20.05;13.73;;;12.40;99.90;;;;;;2047456;28;20112;-73
2023/10/30 04:10:46;;;;;;;21.73;14.60;;;12.40;99.90;;;;;;2047102;28;20130;-72
2023/10/30 04:11:47;;;;;;;21.55;14.93;;;12.30;99.90;;;;;;2054580;28;20602;-73
2023/10/30 04:12:47;;;;;;;19.80;12.82;;;12.30;99.90;;;;;;2058807;28;20030;-73
2023/10/30 04:13:48;;;;;;;19.80;12.20;;;12.40;99.90;;;;;;2046784;28;20058;-73
2023/10/30 04:14:49;;;;;;;23.38;13.70;;;12.40;99.90;;;;;;2050821;28;20039;-74
2023/10/30 04:15:50;;;;;;;19.77;13.05;;;12.40;99.90;;;;;;2054430;28;20030;-72
2023/10/30 04:16:51;;;;;;;20.27;12.93;;;12.40;99.90;;;;;;2048128;28;20037;-73
2023/10/30 04:17:54;;;;;;;19.95;12.68;;;12.40;99.90;;;;;;2053983;28;20109;-72
2023/10/30 04:18:55;;;;;;;17.58;12.27;;;12.40;99.90;;;;;;2053835;28;20034;-72
2023/10/30 04:19:55;;;;;;;17.08;11.85;;;12.40;99.90;;;;;;2049242;28;20030;-73
2023/10/30 04:20:56;;;;;;;17.25;12.65;;;12.40;99.90;;;;;;2053434;28;20035;-73
2023/10/30 04:21:56;;;;;;;17.73;12.50;;;12.40;99.90;;;;;;2055288;28;20069;-72
2023/10/30 04:22:57;;;;;;;14.57;11.63;;;12.40;99.90;;;;;;2047480;28;20086;-72
2023/10/30 04:23:57;;;;;;;15.57;11.73;;;12.40;99.90;;;;;;2045946;28;20042;-71
2023/10/30 04:24:58;;;;;;;18.10;11.55;;;12.40;99.90;;;;;;2052527;28;20037;-72
2023/10/30 04:25:59;;;;;;;17.40;11.80;;;12.40;99.90;;;;;;2052284;28;20046;-73
2023/10/30 04:26:59;;;;;;;17.27;11.15;;;12.30;99.90;;;;;;2059013;28;20026;-73
2023/10/30 04:28:00;;;;;;;14.40;11.25;;;12.40;99.90;;;;;;2051333;28;20502;-73
2023/10/30 04:29:00;;;;;;;14.43;11.07;;;12.40;99.90;;;;;;2047347;28;20213;-73
2023/10/30 04:30:02;;;;;;;13.63;10.48;;;12.40;99.90;;;;;;2045816;28;20027;-72
2023/10/30 04:31:06;;;;;;;14.73;10.80;;;12.40;99.90;;;;;;2052902;28;20030;-72
2023/10/30 04:32:07;;;;;;;15.98;11.20;;;12.40;99.90;;;;;;2050531;28;20030;-72
2023/10/30 04:33:07;;;;;;;13.82;10.98;;;12.40;99.90;;;;;;2044639;28;20494;-72
2023/10/30 04:34:08;;;;;;;14.10;11.45;;;12.40;99.90;;;;;;2047521;28;20114;-73
2023/10/30 04:35:08;;;;;;;15.77;11.48;;;12.40;99.90;;;;;;2046505;28;20134;-73
2023/10/30 04:36:09;;;;;;;14.50;11.20;;;12.40;99.90;;;;;;2044053;28;20038;-72
2023/10/30 04:37:10;;;;;;;14.77;11.10;;;12.30;99.90;;;;;;2022223;28;1032893;-73
2023/10/30 04:38:10;;;;;;;14.15;10.75;;;12.30;99.90;;;;;;2056030;28;20038;-73
2023/10/30 04:39:11;;;;;;;15.30;11.98;;;12.30;99.90;;;;;;2055792;28;20026;-73
2023/10/30 04:40:12;;;;;;;14.30;11.68;;;12.30;99.90;;;;;;2056514;28;20030;-73
2023/10/30 04:41:13;;;;;;;15.30;12.02;;;12.30;99.90;;;;;;2055724;28;20121;-73
2023/10/30 04:42:13;;;;;;;17.48;12.70;;;12.30;99.90;;;;;;2057436;28;20035;-72
2023/10/30 04:43:14;;;;;;;16.50;12.40;;;12.30;99.90;;;;;;2055426;28;20132;-73
2023/10/30 04:44:15;;;;;;;16.55;12.52;;;12.20;99.90;;;;;;2050867;28;20031;-72
2023/10/30 04:45:15;;;;;;;15.00;12.20;;;12.20;99.90;;;;;;2063972;28;20424;-73
2023/10/30 04:46:17;;;;;;;17.85;12.48;;;12.20;99.90;;;;;;2055939;28;20115;-73
2023/10/30 04:47:20;;;;;;;16.55;13.10;;;12.10;99.90;;;;;;2059855;28;20637;-72
2023/10/30 04:48:20;;;;;;;18.67;13.10;;;12.10;99.90;;;;;;2056032;28;20137;-72
2023/10/30 04:49:21;;;;;;;19.35;13.55;;;12.10;99.90;;;;;;2059105;28;20085;-72
2023/10/30 04:50:21;;;;;;;15.25;13.18;;;12.00;99.90;;;;;;2056038;28;20442;-72
2023/10/30 04:51:22;;;;;;;16.42;13.07;;;12.00;99.90;;;;;;2060793;28;20567;-72
2023/10/30 04:52:25;;;;;;;16.77;14.00;;;12.00;99.90;;;;;;2053329;28;20051;-71
2023/10/30 04:53:28;;;;;;;17.52;14.00;;;11.90;99.90;;;;;;2062387;28;20433;-74
2023/10/30 04:54:28;;;;;;;17.52;13.50;;;11.90;99.90;;;;;;2061624;28;20033;-72
2023/10/30 04:55:29;;;;;;;17.38;13.63;;;12.00;99.90;;;;;;2058861;28;20022;-72
2023/10/30 04:56:30;;;;;;;16.83;13.02;;;12.00;99.90;;;;;;2057529;28;20050;-71
2023/10/30 04:57:30;;;;;;;18.63;13.93;;;12.00;99.90;;;;;;2056458;28;20030;-72
2023/10/30 04:58:31;;;;;;;20.42;14.30;;;12.00;99.90;;;;;;2059195;28;20096;-73
2023/10/30 04:59:31;;;;;;;18.90;13.98;;;11.90;99.90;;;;;;2059379;28;20057;-72
2023/10/30 05:00:32;;;;;;;19.73;14.05;;;11.90;99.90;;;;;;2056564;28;20117;-72
2023/10/30 05:01:32;;;;;;;16.88;14.45;;;11.90;99.90;;;;;;2055660;28;20576;-73
2023/10/30 05:02:33;;;;;;;18.88;14.57;;;11.90;99.90;;;;;;2060280;28;20157;-73
2023/10/30 05:03:34;;;;;;;18.83;14.57;;;12.00;99.90;;;;;;2060745;28;20018;-73
2023/10/30 05:04:34;;;;;;;17.90;14.00;;;12.00;99.90;;;;;;2058607;28;20033;-73
2023/10/30 05:05:37;;;;;;;19.50;14.07;;;12.00;99.90;;;;;;2058540;28;20029;-73
2023/10/30 05:06:38;;;;;;;17.33;14.35;;;12.00;99.90;;;;;;2063321;28;20034;-73
2023/10/30 05:07:39;;;;;;;19.30;14.05;;;12.10;99.90;;;;;;2058118;28;20045;-73
2023/10/30 05:08:39;;;;;;;17.80;14.07;;;12.00;99.90;;;;;;2062782;28;20029;-73
2023/10/30 05:09:41;;;;;;;18.63;14.50;;;12.00;99.90;;;;;;2058496;28;20045;-74
2023/10/30 05:10:41;;;;;;;19.23;14.65;;;12.00;99.90;;;;;;2053366;28;20141;-73
2023/10/30 05:11:42;;;;;;;18.17;14.82;;;12.00;99.90;;;;;;2063033;28;20037;-73
2023/10/30 05:12:43;;;;;;;18.27;14.75;;;12.10;99.90;;;;;;2059057;28;20493;-73
2023/10/30 05:13:44;;;;;;;17.98;14.27;;;12.00;99.90;;;;;;2056643;28;20041;-73